Time;durP1;ratioP1;P1;durP2;ratioP2;P2;SDS_P1;SDS_P2;PMS_P1;PMS_P2;Temp;Humidity;BMP_temperature;BMP_pressure;BME280_temperature;BME280_humidity;BME280_pressure;Samples;Min_cycle;Max_cycle;Signal;HPM_P1;HPM_P2
2022/12/02 00:01:45;;;;;;;375.67;126.55;;;;;;;3.66;100.00;102509.88;5053087;28;20469;-48
2022/12/02 00:04:20;;;;;;;390.65;131.07;;;;;;;3.63;100.00;102507.94;5052965;28;20033;-47
2022/12/02 00:06:45;;;;;;;394.83;131.50;;;;;;;3.63;100.00;102501.97;5053646;28;20025;-49
2022/12/02 00:09:34;;;;;;;394.10;128.23;;;;;;;3.70;100.00;102505.91;5053557;28;20086;-48
2022/12/02 00:12:17;;;;;;;381.05;127.15;;;;;;;3.71;100.00;102500.94;5049654;28;20365;-48
2022/12/02 00:14:43;;;;;;;364.15;124.35;;;;;;;3.65;100.00;102499.53;5053231;28;20025;-48
2022/12/02 00:17:08;;;;;;;336.15;119.22;;;;;;;3.60;100.00;102501.69;5053437;28;20036;-48
2022/12/02 00:19:34;;;;;;;340.63;120.85;;;;;;;3.58;100.00;102501.56;5052317;28;20021;-49
2022/12/02 00:21:59;;;;;;;320.30;118.68;;;;;;;3.56;100.00;102500.53;5053289;28;20021;-48
2022/12/02 00:24:24;;;;;;;324.55;119.28;;;;;;;3.57;100.00;102506.53;5052947;28;20029;-48
2022/12/02 00:26:49;;;;;;;326.85;119.20;;;;;;;3.53;100.00;102500.28;5051971;28;20025;-47
2022/12/02 00:29:15;;;;;;;331.25;119.22;;;;;;;3.52;100.00;102492.50;5053289;28;20025;-49
2022/12/02 00:31:40;;;;;;;324.42;118.35;;;;;;;3.51;100.00;102486.53;5052972;28;20025;-48
2022/12/02 00:34:05;;;;;;;325.67;120.20;;;;;;;3.48;100.00;102491.34;5052324;28;20362;-49
2022/12/02 00:36:31;;;;;;;330.42;121.65;;;;;;;3.44;100.00;102479.13;5052963;28;20029;-46
2022/12/02 00:38:56;;;;;;;325.55;117.13;;;;;;;3.44;100.00;102477.44;5052860;28;20032;-49
2022/12/02 00:41:23;;;;;;;338.27;118.35;;;;;;;3.43;100.00;102474.78;5052045;28;20091;-47
2022/12/02 00:46:36;;;;;;;329.73;117.25;;;;;;;3.39;100.00;102475.28;5052082;28;20032;-49
2022/12/02 00:49:03;;;;;;;334.35;119.65;;;;;;;3.36;100.00;102475.91;5052846;28;20021;-48
2022/12/02 00:51:29;;;;;;;356.92;119.97;;;;;;;3.36;100.00;102477.59;5052759;28;20104;-49
2022/12/02 00:53:54;;;;;;;354.98;119.10;;;;;;;3.34;100.00;102474.88;5051574;28;20108;-49
2022/12/02 00:56:20;;;;;;;361.90;121.82;;;;;;;3.33;100.00;102467.13;5052892;28;20027;-47
2022/12/02 00:58:45;;;;;;;354.15;120.65;;;;;;;3.31;100.00;102477.19;5052531;28;20079;-48
2022/12/02 01:01:10;;;;;;;339.15;117.05;;;;;;;3.29;100.00;102473.59;5051771;28;20067;-47
2022/12/02 01:03:36;;;;;;;331.73;117.30;;;;;;;3.27;100.00;102473.47;5052391;28;20033;-47
2022/12/02 01:06:01;;;;;;;336.10;118.28;;;;;;;3.25;100.00;102471.56;5052868;28;20029;-48
2022/12/02 01:08:27;;;;;;;352.42;117.82;;;;;;;3.25;100.00;102479.19;5051862;28;20449;-48
2022/12/02 01:10:53;;;;;;;363.30;117.85;;;;;;;3.21;100.00;102470.41;5052241;28;20051;-48
2022/12/02 01:13:19;;;;;;;341.08;116.82;;;;;;;3.22;100.00;102477.28;5052768;28;20261;-48
2022/12/02 01:15:44;;;;;;;354.35;117.68;;;;;;;3.19;100.00;102468.47;5051489;28;20086;-45
2022/12/02 01:18:09;;;;;;;347.83;117.65;;;;;;;3.18;100.00;102462.50;5052665;28;20057;-49
2022/12/02 01:20:35;;;;;;;346.75;114.60;;;;;;;3.17;100.00;102467.47;5052211;28;20029;-47
2022/12/02 01:23:00;;;;;;;339.33;115.18;;;;;;;3.11;100.00;102463.63;5051647;28;20098;-47
2022/12/02 01:25:25;;;;;;;331.23;109.43;;;;;;;3.10;100.00;102473.69;5052694;28;20052;-48
2022/12/02 01:27:50;;;;;;;331.35;110.07;;;;;;;3.07;100.00;102471.78;5052349;28;20392;-47
2022/12/02 01:30:16;;;;;;;320.58;107.63;;;;;;;3.06;100.00;102469.06;5051612;28;20040;-45
2022/12/02 01:32:41;;;;;;;315.95;108.40;;;;;;;3.04;100.00;102468.94;5052050;28;20384;-49
2022/12/02 01:35:06;;;;;;;305.52;109.20;;;;;;;3.02;100.00;102467.03;5052288;28;20106;-48
2022/12/02 01:37:32;;;;;;;312.45;109.80;;;;;;;3.02;100.00;102477.22;5051064;28;20083;-49
2022/12/02 01:39:57;;;;;;;315.60;107.90;;;;;;;2.99;100.00;102471.88;5052532;28;20043;-47
2022/12/02 01:42:23;;;;;;;313.35;108.88;;;;;;;2.96;100.00;102478.47;5052701;28;20025;-47
2022/12/02 01:44:48;;;;;;;322.27;111.00;;;;;;;2.94;100.00;102468.91;5051375;28;20033;-48
2022/12/02 01:47:13;;;;;;;313.10;107.70;;;;;;;2.91;100.00;102473.75;5052358;28;20373;-46
2022/12/02 01:49:39;;;;;;;297.35;106.05;;;;;;;2.91;100.00;102474.63;5051091;28;20025;-48
2022/12/02 01:52:04;;;;;;;335.25;112.43;;;;;;;2.89;100.00;102470.16;5052151;28;20109;-49
2022/12/02 01:54:31;;;;;;;331.58;111.78;;;;;;;2.84;100.00;102472.34;5052296;28;20464;-47
2022/12/02 01:56:56;;;;;;;352.38;114.53;;;;;;;2.82;100.00;102473.84;5054782;28;20017;-48
2022/12/02 01:59:23;;;;;;;342.27;111.60;;;;;;;2.78;100.00;102467.59;5056126;28;20044;-48
2022/12/02 02:01:48;;;;;;;348.05;111.53;;;;;;;2.77;100.00;102462.38;5055482;28;20048;-49
2022/12/02 02:04:13;;;;;;;356.00;114.32;;;;;;;2.76;100.00;102463.13;5055149;28;20021;-48
2022/12/02 02:06:42;;;;;;;332.58;113.45;;;;;;;2.74;100.00;102469.75;5055462;28;20438;-47
2022/12/02 02:09:09;;;;;;;326.92;114.15;;;;;;;2.73;100.00;102467.94;5055686;28;20484;-48
2022/12/02 02:11:35;;;;;;;340.70;112.72;;;;;;;2.72;100.00;102471.25;5054814;28;20025;-48
2022/12/02 02:14:04;;;;;;;340.55;113.03;;;;;;;2.68;100.00;102467.53;5055657;28;20102;-48
2022/12/02 02:16:30;;;;;;;325.35;111.50;;;;;;;2.65;100.00;102464.72;5055539;28;20392;-48
2022/12/02 02:18:56;;;;;;;347.15;114.07;;;;;;;2.62;100.00;102460.25;5054592;28;20107;-48
2022/12/02 02:21:27;;;;;;;332.42;113.50;;;;;;;2.60;100.00;102466.88;5055485;28;20060;-48
2022/12/02 02:23:52;;;;;;;335.88;110.72;;;;;;;2.60;100.00;102479.59;5055304;28;20029;-49
2022/12/02 02:26:18;;;;;;;333.95;114.28;;;;;;;2.59;100.00;102475.25;5054737;28;20048;-48
2022/12/02 02:28:43;;;;;;;338.75;112.80;;;;;;;2.56;100.00;102475.00;5055087;28;20032;-48
2022/12/02 02:31:08;;;;;;;322.42;109.18;;;;;;;2.53;100.00;102459.47;5055462;28;20119;-47
2022/12/02 02:33:34;;;;;;;311.08;110.20;;;;;;;2.50;100.00;102463.38;5054159;28;20106;-48
2022/12/02 02:36:01;;;;;;;307.95;106.53;;;;;;;2.46;100.00;102460.56;5055083;28;20369;-48
2022/12/02 02:38:28;;;;;;;303.70;105.47;;;;;;;2.45;100.00;102455.31;5055205;28;20033;-47
2022/12/02 02:40:54;;;;;;;307.90;105.88;;;;;;;2.45;100.00;102452.78;5054191;28;20036;-48
2022/12/02 02:43:22;;;;;;;284.95;99.22;;;;;;;2.41;100.00;102445.66;5055511;28;20031;-47
2022/12/02 02:45:48;;;;;;;276.02;101.15;;;;;;;2.40;100.00;102451.50;5053924;28;20036;-46
2022/12/02 02:48:14;;;;;;;276.70;97.72;;;;;;;2.36;100.00;102440.13;5055014;28;20029;-48
2022/12/02 02:50:43;;;;;;;264.38;98.30;;;;;;;2.33;100.00;102449.19;5054531;28;20380;-47
2022/12/02 02:53:09;;;;;;;262.75;97.22;;;;;;;2.31;100.00;102451.56;5054016;28;20420;-49
2022/12/02 02:55:35;;;;;;;269.23;97.97;;;;;;;2.29;100.00;102453.97;5054387;28;20396;-47
2022/12/02 02:58:12;;;;;;;283.83;97.18;;;;;;;2.28;100.00;102447.09;5054850;28;20468;-47
2022/12/02 03:00:41;;;;;;;279.88;98.05;;;;;;;2.24;100.00;102446.69;5053544;28;20538;-48
2022/12/02 03:03:06;;;;;;;283.33;101.80;;;;;;;2.20;100.00;102444.66;5054757;28;20037;-47
2022/12/02 03:05:33;;;;;;;273.55;98.15;;;;;;;2.16;100.00;102428.22;5054576;28;20353;-45
2022/12/02 03:07:58;;;;;;;286.80;98.43;;;;;;;2.15;100.00;102434.03;5053826;28;20044;-48
2022/12/02 03:10:24;;;;;;;284.20;100.03;;;;;;;2.12;100.00;102423.63;5054682;28;20472;-48
2022/12/02 03:12:52;;;;;;;279.77;100.13;;;;;;;2.11;100.00;102421.81;5054288;28;20737;-48
2022/12/02 03:15:19;;;;;;;282.17;98.35;;;;;;;2.08;100.00;102427.53;5053602;28;20044;-48
2022/12/02 03:17:45;;;;;;;285.17;98.18;;;;;;;2.08;100.00;102421.53;5054398;28;20033;-48
2022/12/02 03:20:11;;;;;;;277.52;99.63;;;;;;;2.07;100.00;102419.75;5054653;28;20079;-48
2022/12/02 03:22:36;;;;;;;282.20;98.25;;;;;;;2.05;100.00;102427.22;5053461;28;20381;-47
2022/12/02 03:25:03;;;;;;;284.23;99.90;;;;;;;2.03;100.00;102432.94;5054484;28;20033;-47
2022/12/02 03:27:28;;;;;;;299.10;98.82;;;;;;;2.04;100.00;102434.72;5054295;28;20055;-47
2022/12/02 03:29:53;;;;;;;291.85;98.28;;;;;;;2.04;100.00;102425.47;5053032;28;20052;-49
2022/12/02 03:32:19;;;;;;;280.85;99.47;;;;;;;2.05;100.00;102436.53;5054453;28;20467;-48
2022/12/02 03:34:44;;;;;;;280.95;97.03;;;;;;;2.05;100.00;102426.34;5053720;28;20129;-48
2022/12/02 03:37:10;;;;;;;284.02;98.68;;;;;;;2.03;100.00;102427.84;5053422;28;20029;-48
2022/12/02 03:39:36;;;;;;;284.98;96.95;;;;;;;2.02;100.00;102419.34;5053786;28;20445;-47
2022/12/02 03:42:02;;;;;;;289.00;98.53;;;;;;;2.00;100.00;102408.13;5053196;28;20388;-47
2022/12/02 03:44:27;;;;;;;288.17;97.55;;;;;;;2.01;100.00;102409.91;5053899;28;20468;-49
2022/12/02 03:46:53;;;;;;;276.08;96.07;;;;;;;2.02;100.00;102410.81;5053598;28;20043;-47
2022/12/02 03:49:18;;;;;;;285.13;99.72;;;;;;;2.02;100.00;102419.34;5053263;28;20082;-48
2022/12/02 03:51:45;;;;;;;282.25;98.95;;;;;;;2.03;100.00;102416.03;5053683;28;20104;-48
2022/12/02 03:54:11;;;;;;;272.35;93.15;;;;;;;2.01;100.00;102409.03;5053736;28;20021;-47
2022/12/02 03:56:38;;;;;;;280.45;94.80;;;;;;;2.00;100.00;102397.94;5052594;28;20021;-49
2022/12/02 03:59:04;;;;;;;287.03;96.73;;;;;;;2.00;100.00;102403.03;5053684;28;20056;-48
2022/12/02 04:01:29;;;;;;;272.95;91.88;;;;;;;1.98;100.00;102405.44;5053334;28;20493;-49
2022/12/02 04:03:54;;;;;;;265.65;90.38;;;;;;;1.96;100.00;102412.06;5052708;28;20389;-48
2022/12/02 04:06:20;;;;;;;270.38;88.32;;;;;;;1.96;100.00;102406.06;5053610;28;20104;-48
2022/12/02 04:08:45;;;;;;;259.58;85.90;;;;;;;1.93;100.00;102406.69;5053219;28;20377;-46
2022/12/02 04:11:10;;;;;;;265.48;88.28;;;;;;;1.91;100.00;102398.06;5052745;28;20029;-47
2022/12/02 04:13:36;;;;;;;255.77;85.93;;;;;;;1.89;100.00;102399.53;5053126;28;20021;-48
2022/12/02 04:16:01;;;;;;;272.73;90.28;;;;;;;1.86;100.00;102399.28;5053210;28;20029;-49
2022/12/02 04:18:26;;;;;;;286.40;92.20;;;;;;;1.86;100.00;102390.75;5051915;28;20362;-48
2022/12/02 04:20:51;;;;;;;284.98;92.70;;;;;;;1.83;100.00;102388.81;5053122;28;20381;-46
2022/12/02 04:23:17;;;;;;;270.52;89.25;;;;;;;1.83;100.00;102388.81;5053355;28;20094;-48
2022/12/02 04:25:42;;;;;;;288.17;91.65;;;;;;;1.81;100.00;102393.78;5052082;28;20099;-49
2022/12/02 04:28:08;;;;;;;278.23;92.50;;;;;;;1.80;100.00;102394.53;5053201;28;20090;-49
2022/12/02 04:30:33;;;;;;;291.10;94.38;;;;;;;1.78;100.00;102390.97;5052682;28;20025;-48
2022/12/02 04:32:58;;;;;;;293.35;94.00;;;;;;;1.77;100.00;102393.34;5052369;28;20044;-49
2022/12/02 04:35:24;;;;;;;291.83;94.53;;;;;;;1.77;100.00;102394.25;5053113;28;20056;-48
2022/12/02 04:37:50;;;;;;;291.52;95.45;;;;;;;1.78;100.00;102395.13;5052871;28;20047;-48
2022/12/02 04:40:16;;;;;;;293.55;96.07;;;;;;;1.78;100.00;102401.13;5052288;28;20025;-47
2022/12/02 04:42:42;;;;;;;284.67;92.95;;;;;;;1.77;100.00;102390.81;5052750;28;20036;-48
2022/12/02 04:45:08;;;;;;;298.67;95.28;;;;;;;1.80;100.00;102383.47;5052845;28;20021;-47
2022/12/02 04:47:33;;;;;;;275.38;92.07;;;;;;;1.77;100.00;102384.09;5051602;28;20029;-48
2022/12/02 04:49:58;;;;;;;282.27;92.18;;;;;;;1.78;100.00;102372.25;5052776;28;20108;-49
2022/12/02 04:52:23;;;;;;;273.92;90.72;;;;;;;1.77;100.00;102379.00;5052098;28;20028;-48
2022/12/02 04:54:48;;;;;;;280.70;92.07;;;;;;;1.78;100.00;102379.88;5052281;28;20039;-48
2022/12/02 04:57:14;;;;;;;265.40;87.72;;;;;;;1.76;100.00;102376.34;5052740;28;20079;-48
2022/12/02 04:59:39;;;;;;;258.33;86.15;;;;;;;1.75;100.00;102364.38;5051596;28;20070;-49
2022/12/02 05:02:04;;;;;;;223.32;76.43;;;;;;;1.73;100.00;102365.88;5052597;28;20045;-48
2022/12/02 05:04:30;;;;;;;230.93;79.88;;;;;;;1.72;100.00;102364.13;5052858;28;20106;-48
2022/12/02 05:06:55;;;;;;;229.35;77.75;;;;;;;1.73;100.00;102360.78;5051728;28;20021;-47
2022/12/02 05:09:20;;;;;;;234.38;76.20;;;;;;;1.73;100.00;102366.78;5052677;28;20022;-47
2022/12/02 05:11:45;;;;;;;218.48;73.30;;;;;;;1.75;100.00;102359.28;5052202;28;20399;-49
2022/12/02 05:14:11;;;;;;;217.85;72.22;;;;;;;1.74;100.00;102350.78;5051686;28;20083;-47
2022/12/02 05:16:36;;;;;;;211.00;71.03;;;;;;;1.74;100.00;102353.31;5052225;28;20021;-48
2022/12/02 05:19:01;;;;;;;200.40;71.03;;;;;;;1.72;100.00;102359.03;5052709;28;20025;-48
2022/12/02 05:21:27;;;;;;;210.80;69.10;;;;;;;1.74;100.00;102352.41;5052114;28;20040;-47
2022/12/02 05:23:52;;;;;;;213.38;70.90;;;;;;;1.75;100.00;102350.00;5052174;28;20053;-48
2022/12/02 05:26:17;;;;;;;221.15;71.22;;;;;;;1.76;100.00;102361.09;5052663;28;20032;-49
2022/12/02 05:28:42;;;;;;;211.93;74.45;;;;;;;1.74;100.00;102355.88;5051299;28;20032;-48
2022/12/02 05:31:08;;;;;;;193.63;66.75;;;;;;;1.74;100.00;102357.50;5056368;28;20025;-48
2022/12/02 05:33:33;;;;;;;193.93;67.95;;;;;;;1.74;100.00;102358.41;5056315;28;20516;-47
2022/12/02 05:35:58;;;;;;;211.05;68.88;;;;;;;1.75;100.00;102351.66;5055790;28;20433;-48
2022/12/02 05:38:23;;;;;;;210.00;69.35;;;;;;;1.75;100.00;102347.47;5056422;28;20036;-49
2022/12/02 05:40:54;;;;;;;194.95;69.47;;;;;;;1.75;100.00;102354.22;5055997;28;20497;-49
2022/12/02 05:43:22;;;;;;;207.65;66.90;;;;;;;1.74;100.00;102353.31;5055553;28;20128;-47
2022/12/02 05:45:48;;;;;;;195.50;65.65;;;;;;;1.74;100.00;102347.31;5056077;28;20024;-47
2022/12/02 05:48:16;;;;;;;192.55;63.55;;;;;;;1.74;100.00;102347.31;5056099;28;20028;-48
2022/12/02 05:50:42;;;;;;;194.55;65.30;;;;;;;1.71;100.00;102347.94;5055171;28;20032;-48
2022/12/02 05:53:21;;;;;;;189.90;64.07;;;;;;;1.76;100.00;102356.00;5056258;28;20033;-48
2022/12/02 05:55:47;;;;;;;204.52;65.22;;;;;;;1.74;100.00;102353.31;5054782;28;20547;-48
2022/12/02 05:58:12;;;;;;;187.95;63.60;;;;;;;1.74;100.00;102353.31;5055963;28;20104;-47
2022/12/02 06:00:38;;;;;;;193.30;63.38;;;;;;;1.75;100.00;102349.13;5055335;28;20110;-48
2022/12/02 06:03:07;;;;;;;205.70;66.38;;;;;;;1.75;100.00;102359.28;5055286;28;20461;-47
2022/12/02 06:05:40;;;;;;;202.30;64.15;;;;;;;1.76;100.00;102358.53;5055499;28;20468;-48
2022/12/02 06:08:24;;;;;;;203.27;66.32;;;;;;;1.77;100.00;102348.50;5055824;28;20157;-46
2022/12/02 06:10:58;;;;;;;195.73;63.83;;;;;;;1.73;100.00;102353.16;5054711;28;20292;-48
2022/12/02 06:13:26;;;;;;;187.85;62.72;;;;;;;1.71;100.00;102342.88;5055860;28;20029;-48
2022/12/02 06:15:52;;;;;;;182.15;60.88;;;;;;;1.71;100.00;102347.06;5055237;28;20497;-48
2022/12/02 06:18:22;;;;;;;190.98;62.33;;;;;;;1.69;100.00;102351.09;5054855;28;20033;-46
2022/12/02 06:20:52;;;;;;;190.60;62.53;;;;;;;1.67;100.00;102347.56;5055230;28;20044;-48
2022/12/02 06:23:19;;;;;;;190.88;62.10;;;;;;;1.66;100.00;102349.19;5055678;28;20027;-48
2022/12/02 06:25:45;;;;;;;;;;;;;;;1.76;100.00;102356.88;5054938;28;20063;-48
2022/12/02 06:28:35;;;;;;;189.07;61.83;;;;;;;1.67;100.00;102350.09;5055472;28;19916;-47
2022/12/02 06:31:16;;;;;;;181.60;59.05;;;;;;;1.66;100.00;102355.94;5054527;28;20064;-47
2022/12/02 06:33:45;;;;;;;175.43;59.67;;;;;;;1.64;100.00;102341.44;5055272;28;20036;-47
2022/12/02 06:36:14;;;;;;;184.23;63.42;;;;;;;1.67;100.00;102350.09;5055331;28;20052;-47
2022/12/02 06:38:56;;;;;;;194.80;64.35;;;;;;;1.69;100.00;102351.09;5054025;28;20481;-47
2022/12/02 06:41:24;;;;;;;189.23;64.38;;;;;;;1.69;100.00;102349.47;5054487;28;20480;-48
2022/12/02 06:46:37;;;;;;;199.57;66.40;;;;;;;1.70;100.00;102345.28;5054371;28;20071;-48
2022/12/02 06:49:19;;;;;;;199.13;66.03;;;;;;;1.72;100.00;102341.25;5055067;28;20427;-49
2022/12/02 06:51:47;;;;;;;199.52;64.00;;;;;;;1.70;100.00;102346.16;5054818;28;20532;-47
2022/12/02 06:54:20;;;;;;;197.38;65.60;;;;;;;1.73;100.00;102345.53;5054084;28;20111;-47
2022/12/02 06:56:46;;;;;;;198.65;63.03;;;;;;;1.72;100.00;102346.31;5054673;28;20028;-49
2022/12/02 06:59:14;;;;;;;194.13;61.83;;;;;;;1.71;100.00;102349.59;5054179;28;20096;-46
2022/12/02 07:01:43;;;;;;;188.50;63.55;;;;;;;1.70;100.00;102345.28;5054336;28;20049;-47
2022/12/02 07:04:08;;;;;;;206.45;64.15;;;;;;;1.70;100.00;102338.53;5054838;28;20036;-48
2022/12/02 07:06:38;;;;;;;202.30;64.80;;;;;;;1.68;100.00;102349.31;5053488;28;20427;-46
2022/12/02 07:09:21;;;;;;;200.27;62.10;;;;;;;1.68;100.00;102349.31;5055072;28;20775;-45
2022/12/02 07:11:49;;;;;;;198.13;62.10;;;;;;;1.65;100.00;102352.47;5054513;28;20033;-48
2022/12/02 07:14:33;;;;;;;183.35;60.03;;;;;;;1.67;100.00;102360.25;5053423;28;20025;-49
2022/12/02 07:17:12;;;;;;;180.55;57.58;;;;;;;1.64;100.00;102361.75;5054437;28;20480;-47
2022/12/02 07:19:41;;;;;;;188.95;60.30;;;;;;;1.63;100.00;102359.97;5054139;28;20033;-48
2022/12/02 07:22:23;;;;;;;191.23;59.15;;;;;;;1.62;100.00;102363.25;5053772;28;20028;-47
2022/12/02 07:24:54;;;;;;;175.45;57.28;;;;;;;1.62;100.00;102362.38;5054070;28;20022;-48
2022/12/02 07:27:25;;;;;;;179.93;57.65;;;;;;;1.63;100.00;102354.00;5053465;28;20021;-47
2022/12/02 07:29:52;;;;;;;165.32;52.95;;;;;;;1.63;100.00;102354.88;5054053;28;20036;-47
2022/12/02 07:32:17;;;;;;;160.27;52.83;;;;;;;1.66;100.00;102353.38;5054318;28;20104;-48
2022/12/02 07:34:42;;;;;;;157.18;54.00;;;;;;;1.68;100.00;102350.22;5053028;28;20117;-46
2022/12/02 07:37:08;;;;;;;160.50;53.72;;;;;;;1.66;100.00;102350.84;5054212;28;20032;-49
2022/12/02 07:39:33;;;;;;;157.75;52.42;;;;;;;1.67;100.00;102345.91;5053716;28;20025;-47
2022/12/02 07:41:58;;;;;;;155.73;50.83;;;;;;;1.68;100.00;102351.84;5053145;28;20054;-48
2022/12/02 07:44:23;;;;;;;165.88;54.10;;;;;;;1.69;100.00;102351.09;5054174;28;20530;-48
2022/12/02 07:46:49;;;;;;;178.50;56.60;;;;;;;1.71;100.00;102349.59;5053728;28;20027;-47
2022/12/02 07:49:14;;;;;;;169.25;55.03;;;;;;;1.70;100.00;102350.34;5053078;28;20028;-48
2022/12/02 07:51:39;;;;;;;181.75;58.05;;;;;;;1.69;100.00;102349.47;5053497;28;20033;-48
2022/12/02 07:54:05;;;;;;;180.13;59.67;;;;;;;1.69;100.00;102349.47;5052581;28;20021;-48
2022/12/02 07:56:30;;;;;;;179.30;59.08;;;;;;;1.69;100.00;102353.66;5052954;28;20078;-44
2022/12/02 07:58:55;;;;;;;182.55;58.95;;;;;;;1.69;100.00;102358.72;5053482;28;20017;-47
2022/12/02 08:01:21;;;;;;;186.57;57.67;;;;;;;1.70;100.00;102357.97;5053617;28;20040;-47
2022/12/02 08:03:46;;;;;;;178.57;58.80;;;;;;;1.69;100.00;102351.09;5052451;28;20021;-48
2022/12/02 08:06:11;;;;;;;176.48;59.22;;;;;;;1.70;100.00;102357.97;5053623;28;20067;-46
2022/12/02 08:08:36;;;;;;;185.07;58.53;;;;;;;1.70;100.00;102365.59;5053394;28;20036;-47
2022/12/02 08:11:02;;;;;;;188.93;60.95;;;;;;;1.69;100.00;102363.81;5052625;28;20618;-47
2022/12/02 08:13:27;;;;;;;190.77;61.58;;;;;;;1.66;100.00;102363.56;5053309;28;20036;-48
2022/12/02 08:15:52;;;;;;;195.60;63.03;;;;;;;1.62;100.00;102358.19;5053175;28;20029;-47
2022/12/02 08:18:18;;;;;;;202.10;66.88;;;;;;;1.61;100.00;102352.97;5052605;28;20048;-47
2022/12/02 08:20:43;;;;;;;200.60;68.03;;;;;;;1.58;100.00;102353.56;5052900;28;20028;-49
2022/12/02 08:23:08;;;;;;;213.75;66.82;;;;;;;1.58;100.00;102360.31;5053312;28;20036;-45
2022/12/02 08:25:33;;;;;;;210.93;68.43;;;;;;;1.57;100.00;102356.88;5052165;28;20096;-46
2022/12/02 08:27:59;;;;;;;215.20;69.47;;;;;;;1.55;100.00;102360.94;5053103;28;20025;-48
2022/12/02 08:30:24;;;;;;;210.68;71.10;;;;;;;1.54;100.00;102354.06;5052541;28;20468;-49
2022/12/02 08:32:49;;;;;;;225.35;71.95;;;;;;;1.53;100.00;102351.38;5052733;28;20370;-48
2022/12/02 08:35:14;;;;;;;223.75;71.55;;;;;;;1.54;100.00;102353.19;5052857;28;20029;-47
2022/12/02 08:37:40;;;;;;;217.32;70.28;;;;;;;1.52;100.00;102349.59;5051911;28;20029;-47
2022/12/02 08:40:06;;;;;;;222.73;69.47;;;;;;;1.50;100.00;102349.47;5052928;28;20526;-49
2022/12/02 08:42:31;;;;;;;210.20;66.25;;;;;;;1.52;100.00;102357.22;5052412;28;20044;-43
2022/12/02 08:44:57;;;;;;;204.88;65.05;;;;;;;1.52;100.00;102358.09;5052022;28;20067;-48
2022/12/02 08:47:22;;;;;;;196.52;64.22;;;;;;;1.52;100.00;102360.63;5052952;28;20495;-47
2022/12/02 08:49:48;;;;;;;199.13;63.55;;;;;;;1.49;100.00;102357.84;5052659;28;20119;-48
2022/12/02 08:52:13;;;;;;;192.35;61.85;;;;;;;1.51;100.00;102356.34;5052036;28;20388;-48
2022/12/02 08:54:39;;;;;;;189.52;65.53;;;;;;;1.49;100.00;102355.28;5052295;28;20040;-47
2022/12/02 08:57:05;;;;;;;178.43;59.97;;;;;;;1.47;100.00;102350.06;5052663;28;20021;-47
2022/12/02 08:59:30;;;;;;;169.65;55.58;;;;;;;1.46;100.00;102345.75;5052010;28;20377;-45
2022/12/02 09:01:55;;;;;;;169.05;53.72;;;;;;;1.44;100.00;102353.97;5052272;28;20071;-48
2022/12/02 09:04:21;;;;;;;163.38;56.38;;;;;;;1.42;100.00;102350.41;5052363;28;20028;-47
2022/12/02 09:06:46;;;;;;;159.80;54.38;;;;;;;1.44;100.00;102356.53;5051564;28;20024;-46
2022/12/02 09:09:11;;;;;;;160.70;55.03;;;;;;;1.42;100.00;102356.38;5052498;28;20048;-47
2022/12/02 09:11:37;;;;;;;161.98;55.75;;;;;;;1.42;100.00;102353.84;5052028;28;20037;-48
2022/12/02 09:14:02;;;;;;;177.15;56.55;;;;;;;1.43;100.00;102357.28;5051842;28;20029;-48
2022/12/02 09:16:27;;;;;;;166.07;55.75;;;;;;;1.42;100.00;102361.47;5052465;28;20076;-49
2022/12/02 09:18:54;;;;;;;173.85;55.55;;;;;;;1.41;100.00;102357.13;5052300;28;20461;-48
2022/12/02 09:21:20;;;;;;;164.40;53.72;;;;;;;1.40;100.00;102354.47;5051698;28;20554;-48
2022/12/02 09:23:45;;;;;;;153.45;52.38;;;;;;;1.39;100.00;102358.63;5052081;28;20021;-48
2022/12/02 09:26:11;;;;;;;160.00;53.80;;;;;;;1.39;100.00;102350.13;5052399;28;20430;-49
2022/12/02 09:28:36;;;;;;;152.40;52.03;;;;;;;1.37;100.00;102351.63;5051178;28;20032;-49
2022/12/02 09:31:01;;;;;;;165.65;52.80;;;;;;;1.36;100.00;102344.78;5052572;28;20021;-48
2022/12/02 09:33:26;;;;;;;146.13;49.35;;;;;;;1.34;100.00;102348.81;5052581;28;20033;-48
2022/12/02 09:35:52;;;;;;;156.35;54.00;;;;;;;1.37;100.00;102351.63;5051401;28;20047;-48
2022/12/02 09:38:17;;;;;;;167.15;52.92;;;;;;;1.36;100.00;102342.25;5052425;28;20045;-49
2022/12/02 09:40:42;;;;;;;159.15;51.58;;;;;;;1.35;100.00;102338.78;5051479;28;20103;-48
2022/12/02 09:43:08;;;;;;;164.85;51.28;;;;;;;1.37;100.00;102338.91;5052005;28;20037;-47
2022/12/02 09:45:33;;;;;;;153.05;50.78;;;;;;;1.38;100.00;102335.63;5051860;28;20021;-47
2022/12/02 09:47:59;;;;;;;168.45;52.97;;;;;;;1.42;100.00;102337.69;5051596;28;20103;-48
2022/12/02 09:50:25;;;;;;;153.00;50.80;;;;;;;1.37;100.00;102328.75;5052327;28;20040;-48
2022/12/02 09:52:51;;;;;;;178.35;53.17;;;;;;;1.40;100.00;102340.09;5051904;28;20481;-47
2022/12/02 09:55:19;;;;;;;161.65;53.25;;;;;;;1.38;100.00;102335.63;5051240;28;20037;-46
2022/12/02 09:57:44;;;;;;;168.48;53.33;;;;;;;1.37;100.00;102333.84;5051644;28;20423;-49
2022/12/02 10:00:16;;;;;;;177.05;55.88;;;;;;;1.38;100.00;102344.16;5052016;28;20021;-48
2022/12/02 10:02:44;;;;;;;169.45;53.75;;;;;;;1.38;100.00;102335.63;5050716;28;20039;-48
2022/12/02 10:05:22;;;;;;;177.18;57.53;;;;;;;1.41;100.00;102333.38;5052278;28;20017;-48
2022/12/02 10:07:50;;;;;;;207.98;58.80;;;;;;;1.40;100.00;102340.09;5051758;28;20059;-47
2022/12/02 10:10:21;;;;;;;214.57;61.67;;;;;;;1.37;100.00;102329.69;5051543;28;20044;-47
2022/12/02 10:12:47;;;;;;;203.00;60.13;;;;;;;1.36;100.00;102332.97;5051807;28;20021;-48
2022/12/02 10:15:16;;;;;;;228.77;62.38;;;;;;;1.37;100.00;102329.69;5052035;28;20075;-48
2022/12/02 10:17:44;;;;;;;234.50;64.32;;;;;;;1.39;100.00;102329.81;5053911;28;20109;-47
2022/12/02 10:20:20;;;;;;;;;;;;;;;1.47;100.00;102336.47;5056230;28;20086;-48
2022/12/02 10:23:14;;;;;;;225.93;65.65;;;;;;;1.43;100.00;102325.16;5055154;28;19913;-46
2022/12/02 10:25:45;;;;;;;236.55;64.80;;;;;;;1.43;100.00;102326.78;5055288;28;20024;-47
2022/12/02 10:28:20;;;;;;;228.48;66.72;;;;;;;1.45;100.00;102326.16;5055472;28;20025;-49
2022/12/02 10:31:13;;;;;;;253.77;70.78;;;;;;;1.50;100.00;102326.59;5054412;28;20065;-48
2022/12/02 10:33:51;;;;;;;247.77;69.70;;;;;;;1.46;100.00;102327.06;5052706;28;20044;-47
2022/12/02 10:36:37;;;;;;;250.32;72.10;;;;;;;1.53;100.00;102321.78;5055375;28;20108;-47
2022/12/02 10:39:17;;;;;;;252.77;70.75;;;;;;;1.51;100.00;102313.13;5054468;28;20031;-48
2022/12/02 10:41:43;;;;;;;255.80;70.95;;;;;;;1.52;100.00;102304.75;5055083;28;20110;-49
2022/12/02 10:44:21;;;;;;;254.48;71.32;;;;;;;1.55;100.00;102312.66;5054459;28;20061;-47
2022/12/02 10:46:47;;;;;;;261.40;73.22;;;;;;;1.60;100.00;102305.41;5054783;28;20111;-48
2022/12/02 10:49:35;;;;;;;253.60;74.22;;;;;;;1.67;100.00;102304.34;5054979;28;20078;-48
2022/12/02 10:52:08;;;;;;;253.15;69.22;;;;;;;1.69;100.00;102307.91;5054200;28;20463;-47
2022/12/02 10:54:36;;;;;;;247.88;72.65;;;;;;;1.72;100.00;102303.09;5054720;28;20063;-45
2022/12/02 10:57:03;;;;;;;247.68;70.55;;;;;;;1.73;100.00;102305.78;5055010;28;20021;-47
2022/12/02 10:59:30;;;;;;;260.57;70.27;;;;;;;1.75;100.00;102296.63;5054180;28;20062;-49
2022/12/02 11:01:55;;;;;;;258.70;72.50;;;;;;;1.78;100.00;102298.53;5054446;28;20045;-48
2022/12/02 11:04:21;;;;;;;247.98;68.55;;;;;;;1.77;100.00;102296.75;5054689;28;20021;-47
2022/12/02 11:06:48;;;;;;;243.88;69.68;;;;;;;1.80;100.00;102297.03;5053752;28;20029;-47